sensor_id;sensor_type;location;lat;lon;timestamp;P1;durP1;ratioP1;P2;durP2;ratioP2
35048;SDS011;21236;48.740;-3.446;2022-10-29T00:00:47;8.05;;;1.90;;
35048;SDS011;21236;48.740;-3.446;2022-10-29T00:03:13;8.10;;;1.55;;
35048;SDS011;21236;48.740;-3.446;2022-10-29T00:05:40;6.85;;;2.45;;
35048;SDS011;21236;48.740;-3.446;2022-10-29T00:08:06;8.95;;;1.40;;
35048;SDS011;21236;48.740;-3.446;2022-10-29T00:10:32;13.63;;;1.92;;
35048;SDS011;21236;48.740;-3.446;2022-10-29T00:13:01;6.50;;;1.80;;
35048;SDS011;21236;48.740;-3.446;2022-10-29T00:15:27;12.65;;;1.95;;
35048;SDS011;21236;48.740;-3.446;2022-10-29T00:17:53;9.60;;;1.70;;
35048;SDS011;21236;48.740;-3.446;2022-10-29T00:20:19;8.93;;;1.92;;
35048;SDS011;21236;48.740;-3.446;2022-10-29T00:22:46;10.52;;;1.70;;
35048;SDS011;21236;48.740;-3.446;2022-10-29T00:25:12;12.20;;;1.95;;
35048;SDS011;21236;48.740;-3.446;2022-10-29T00:27:38;4.55;;;1.42;;
35048;SDS011;21236;48.740;-3.446;2022-10-29T00:30:04;10.52;;;1.92;;
35048;SDS011;21236;48.740;-3.446;2022-10-29T00:32:30;9.95;;;1.88;;
35048;SDS011;21236;48.740;-3.446;2022-10-29T00:34:56;4.22;;;1.65;;
35048;SDS011;21236;48.740;-3.446;2022-10-29T00:37:23;8.60;;;1.75;;
35048;SDS011;21236;48.740;-3.446;2022-10-29T00:39:49;13.82;;;1.92;;
35048;SDS011;21236;48.740;-3.446;2022-10-29T00:42:15;9.93;;;1.88;;
35048;SDS011;21236;48.740;-3.446;2022-10-29T00:44:41;8.77;;;2.10;;
35048;SDS011;21236;48.740;-3.446;2022-10-29T00:49:48;9.25;;;1.67;;
35048;SDS011;21236;48.740;-3.446;2022-10-29T00:52:14;10.63;;;1.88;;
35048;SDS011;21236;48.740;-3.446;2022-10-29T00:54:42;6.05;;;2.53;;
35048;SDS011;21236;48.740;-3.446;2022-10-29T00:57:11;13.75;;;2.67;;
35048;SDS011;21236;48.740;-3.446;2022-10-29T00:59:39;10.90;;;1.80;;
35048;SDS011;21236;48.740;-3.446;2022-10-29T01:02:06;8.98;;;1.90;;
35048;SDS011;21236;48.740;-3.446;2022-10-29T01:04:32;11.65;;;2.47;;
35048;SDS011;21236;48.740;-3.446;2022-10-29T01:06:59;9.77;;;1.70;;
35048;SDS011;21236;48.740;-3.446;2022-10-29T01:09:25;8.27;;;1.70;;
35048;SDS011;21236;48.740;-3.446;2022-10-29T01:16:59;9.68;;;1.58;;
35048;SDS011;21236;48.740;-3.446;2022-10-29T01:22:01;12.55;;;2.42;;
35048;SDS011;21236;48.740;-3.446;2022-10-29T01:29:53;10.00;;;2.60;;
35048;SDS011;21236;48.740;-3.446;2022-10-29T01:40:25;10.30;;;3.92;;
35048;SDS011;21236;48.740;-3.446;2022-10-29T01:42:55;8.10;;;2.40;;
35048;SDS011;21236;48.740;-3.446;2022-10-29T01:46:07;10.90;;;2.92;;
35048;SDS011;21236;48.740;-3.446;2022-10-29T01:48:14;15.95;;;3.53;;
35048;SDS011;21236;48.740;-3.446;2022-10-29T01:50:43;10.13;;;3.22;;
35048;SDS011;21236;48.740;-3.446;2022-10-29T01:53:10;15.55;;;3.53;;
35048;SDS011;21236;48.740;-3.446;2022-10-29T01:55:36;12.43;;;3.42;;
35048;SDS011;21236;48.740;-3.446;2022-10-29T01:58:03;12.48;;;2.95;;
35048;SDS011;21236;48.740;-3.446;2022-10-29T02:00:32;13.90;;;2.90;;
35048;SDS011;21236;48.740;-3.446;2022-10-29T02:05:54;10.07;;;3.08;;
35048;SDS011;21236;48.740;-3.446;2022-10-29T02:11:02;8.73;;;3.08;;
35048;SDS011;21236;48.740;-3.446;2022-10-29T02:13:32;15.07;;;3.08;;
35048;SDS011;21236;48.740;-3.446;2022-10-29T02:15:59;13.25;;;3.05;;
35048;SDS011;21236;48.740;-3.446;2022-10-29T02:18:27;9.23;;;3.00;;
35048;SDS011;21236;48.740;-3.446;2022-10-29T02:20:53;16.48;;;3.00;;
35048;SDS011;21236;48.740;-3.446;2022-10-29T02:23:19;8.68;;;2.85;;
35048;SDS011;21236;48.740;-3.446;2022-10-29T02:25:46;17.67;;;3.05;;
35048;SDS011;21236;48.740;-3.446;2022-10-29T02:28:12;12.98;;;3.35;;
35048;SDS011;21236;48.740;-3.446;2022-10-29T02:30:38;10.35;;;3.50;;
35048;SDS011;21236;48.740;-3.446;2022-10-29T02:33:04;11.15;;;3.70;;
35048;SDS011;21236;48.740;-3.446;2022-10-29T02:35:30;13.85;;;3.80;;
35048;SDS011;21236;48.740;-3.446;2022-10-29T02:37:56;9.52;;;3.13;;
35048;SDS011;21236;48.740;-3.446;2022-10-29T02:40:22;17.98;;;2.90;;
35048;SDS011;21236;48.740;-3.446;2022-10-29T02:42:48;8.20;;;3.28;;
35048;SDS011;21236;48.740;-3.446;2022-10-29T02:45:14;15.40;;;3.97;;
35048;SDS011;21236;48.740;-3.446;2022-10-29T02:47:40;15.15;;;4.75;;
35048;SDS011;21236;48.740;-3.446;2022-10-29T02:50:07;13.52;;;3.67;;
35048;SDS011;21236;48.740;-3.446;2022-10-29T02:52:33;16.25;;;4.10;;
35048;SDS011;21236;48.740;-3.446;2022-10-29T02:54:59;13.73;;;3.78;;
35048;SDS011;21236;48.740;-3.446;2022-10-29T02:57:25;11.48;;;3.33;;
35048;SDS011;21236;48.740;-3.446;2022-10-29T02:59:51;16.58;;;3.38;;
35048;SDS011;21236;48.740;-3.446;2022-10-29T03:02:17;19.85;;;3.60;;
35048;SDS011;21236;48.740;-3.446;2022-10-29T03:04:43;14.63;;;2.88;;
35048;SDS011;21236;48.740;-3.446;2022-10-29T03:07:09;23.02;;;4.63;;
35048;SDS011;21236;48.740;-3.446;2022-10-29T03:09:35;12.30;;;4.38;;
35048;SDS011;21236;48.740;-3.446;2022-10-29T03:12:02;16.08;;;3.50;;
35048;SDS011;21236;48.740;-3.446;2022-10-29T03:14:28;16.45;;;4.35;;
35048;SDS011;21236;48.740;-3.446;2022-10-29T03:16:54;14.73;;;3.70;;
35048;SDS011;21236;48.740;-3.446;2022-10-29T03:19:20;14.85;;;3.88;;
35048;SDS011;21236;48.740;-3.446;2022-10-29T03:21:46;12.02;;;3.00;;
35048;SDS011;21236;48.740;-3.446;2022-10-29T03:24:12;17.38;;;3.42;;
35048;SDS011;21236;48.740;-3.446;2022-10-29T03:26:38;12.77;;;4.80;;
35048;SDS011;21236;48.740;-3.446;2022-10-29T03:29:04;18.45;;;3.55;;
35048;SDS011;21236;48.740;-3.446;2022-10-29T03:31:30;13.30;;;4.78;;
35048;SDS011;21236;48.740;-3.446;2022-10-29T03:33:56;16.60;;;4.47;;
35048;SDS011;21236;48.740;-3.446;2022-10-29T03:36:22;18.17;;;3.63;;
35048;SDS011;21236;48.740;-3.446;2022-10-29T03:38:48;17.00;;;4.35;;
35048;SDS011;21236;48.740;-3.446;2022-10-29T03:41:15;20.38;;;4.13;;
35048;SDS011;21236;48.740;-3.446;2022-10-29T03:43:41;13.18;;;3.50;;
35048;SDS011;21236;48.740;-3.446;2022-10-29T03:46:07;17.02;;;3.85;;
35048;SDS011;21236;48.740;-3.446;2022-10-29T03:48:33;12.73;;;3.40;;
35048;SDS011;21236;48.740;-3.446;2022-10-29T03:51:00;20.50;;;4.15;;
35048;SDS011;21236;48.740;-3.446;2022-10-29T03:53:26;16.60;;;3.80;;
35048;SDS011;21236;48.740;-3.446;2022-10-29T03:55:53;14.27;;;3.95;;
35048;SDS011;21236;48.740;-3.446;2022-10-29T03:58:20;21.80;;;4.18;;
35048;SDS011;21236;48.740;-3.446;2022-10-29T04:00:57;19.40;;;3.70;;
35048;SDS011;21236;48.740;-3.446;2022-10-29T04:03:24;16.00;;;4.00;;
35048;SDS011;21236;48.740;-3.446;2022-10-29T04:05:50;14.27;;;4.13;;
35048;SDS011;21236;48.740;-3.446;2022-10-29T04:08:16;18.98;;;4.43;;
35048;SDS011;21236;48.740;-3.446;2022-10-29T04:10:46;18.52;;;4.35;;
35048;SDS011;21236;48.740;-3.446;2022-10-29T04:13:12;16.90;;;4.85;;
35048;SDS011;21236;48.740;-3.446;2022-10-29T04:15:39;20.83;;;4.30;;
35048;SDS011;21236;48.740;-3.446;2022-10-29T04:18:05;15.35;;;4.30;;
35048;SDS011;21236;48.740;-3.446;2022-10-29T04:20:31;19.80;;;4.45;;
35048;SDS011;21236;48.740;-3.446;2022-10-29T04:22:57;13.90;;;4.32;;
35048;SDS011;21236;48.740;-3.446;2022-10-29T04:25:23;16.92;;;4.05;;
35048;SDS011;21236;48.740;-3.446;2022-10-29T04:27:50;25.38;;;5.22;;
35048;SDS011;21236;48.740;-3.446;2022-10-29T04:30:18;12.95;;;3.97;;
35048;SDS011;21236;48.740;-3.446;2022-10-29T04:32:44;17.40;;;3.63;;
35048;SDS011;21236;48.740;-3.446;2022-10-29T04:35:10;16.98;;;3.75;;
35048;SDS011;21236;48.740;-3.446;2022-10-29T04:37:36;21.23;;;4.20;;
35048;SDS011;21236;48.740;-3.446;2022-10-29T04:40:03;21.17;;;5.10;;
35048;SDS011;21236;48.740;-3.446;2022-10-29T04:42:34;22.85;;;4.47;;
35048;SDS011;21236;48.740;-3.446;2022-10-29T04:45:00;17.38;;;4.70;;
35048;SDS011;21236;48.740;-3.446;2022-10-29T04:47:26;16.50;;;4.22;;
35048;SDS011;21236;48.740;-3.446;2022-10-29T04:49:53;28.83;;;6.13;;
35048;SDS011;21236;48.740;-3.446;2022-10-29T04:52:19;17.63;;;4.18;;
35048;SDS011;21236;48.740;-3.446;2022-10-29T04:54:45;20.15;;;4.88;;
35048;SDS011;21236;48.740;-3.446;2022-10-29T04:57:11;22.40;;;4.47;;
35048;SDS011;21236;48.740;-3.446;2022-10-29T04:59:37;14.60;;;3.53;;
35048;SDS011;21236;48.740;-3.446;2022-10-29T05:02:03;23.73;;;4.72;;
35048;SDS011;21236;48.740;-3.446;2022-10-29T05:04:30;20.60;;;4.22;;
35048;SDS011;21236;48.740;-3.446;2022-10-29T05:06:56;11.38;;;3.72;;
35048;SDS011;21236;48.740;-3.446;2022-10-29T05:09:22;20.55;;;4.57;;
35048;SDS011;21236;48.740;-3.446;2022-10-29T05:11:48;11.60;;;3.50;;
35048;SDS011;21236;48.740;-3.446;2022-10-29T05:14:14;12.80;;;3.67;;
35048;SDS011;21236;48.740;-3.446;2022-10-29T05:16:40;21.17;;;4.63;;
35048;SDS011;21236;48.740;-3.446;2022-10-29T05:19:06;22.25;;;4.45;;
35048;SDS011;21236;48.740;-3.446;2022-10-29T05:21:32;23.10;;;4.68;;
35048;SDS011;21236;48.740;-3.446;2022-10-29T05:23:58;22.50;;;4.13;;
35048;SDS011;21236;48.740;-3.446;2022-10-29T05:26:25;22.58;;;4.53;;
35048;SDS011;21236;48.740;-3.446;2022-10-29T05:28:51;14.13;;;3.47;;
35048;SDS011;21236;48.740;-3.446;2022-10-29T05:31:17;19.00;;;4.43;;
35048;SDS011;21236;48.740;-3.446;2022-10-29T05:33:43;18.77;;;4.05;;
35048;SDS011;21236;48.740;-3.446;2022-10-29T05:36:09;22.08;;;5.10;;
35048;SDS011;21236;48.740;-3.446;2022-10-29T05:38:36;19.42;;;4.72;;
35048;SDS011;21236;48.740;-3.446;2022-10-29T05:41:02;23.63;;;4.60;;
35048;SDS011;21236;48.740;-3.446;2022-10-29T05:43:28;22.20;;;3.85;;
35048;SDS011;21236;48.740;-3.446;2022-10-29T05:45:54;19.30;;;3.17;;
35048;SDS011;21236;48.740;-3.446;2022-10-29T05:48:20;23.25;;;4.43;;
35048;SDS011;21236;48.740;-3.446;2022-10-29T05:50:46;17.90;;;3.33;;
35048;SDS011;21236;48.740;-3.446;2022-10-29T05:53:13;20.75;;;3.80;;
35048;SDS011;21236;48.740;-3.446;2022-10-29T05:55:39;14.40;;;4.03;;
35048;SDS011;21236;48.740;-3.446;2022-10-29T05:58:10;10.63;;;3.15;;
35048;SDS011;21236;48.740;-3.446;2022-10-29T06:00:37;20.40;;;3.95;;
35048;SDS011;21236;48.740;-3.446;2022-10-29T06:03:07;18.33;;;4.28;;
35048;SDS011;21236;48.740;-3.446;2022-10-29T06:05:34;19.17;;;3.72;;
35048;SDS011;21236;48.740;-3.446;2022-10-29T06:08:00;18.55;;;4.47;;
35048;SDS011;21236;48.740;-3.446;2022-10-29T06:10:27;19.45;;;4.05;;
35048;SDS011;21236;48.740;-3.446;2022-10-29T06:12:54;19.65;;;3.85;;
35048;SDS011;21236;48.740;-3.446;2022-10-29T06:15:20;19.55;;;3.42;;
35048;SDS011;21236;48.740;-3.446;2022-10-29T06:17:47;11.82;;;3.78;;
35048;SDS011;21236;48.740;-3.446;2022-10-29T06:20:14;24.75;;;4.45;;
35048;SDS011;21236;48.740;-3.446;2022-10-29T06:22:40;22.05;;;4.15;;
35048;SDS011;21236;48.740;-3.446;2022-10-29T06:25:07;13.55;;;3.65;;
35048;SDS011;21236;48.740;-3.446;2022-10-29T06:27:34;15.68;;;4.63;;
35048;SDS011;21236;48.740;-3.446;2022-10-29T06:30:00;17.55;;;4.20;;
35048;SDS011;21236;48.740;-3.446;2022-10-29T06:32:26;17.27;;;3.78;;
35048;SDS011;21236;48.740;-3.446;2022-10-29T06:34:52;12.85;;;3.90;;
35048;SDS011;21236;48.740;-3.446;2022-10-29T06:37:18;16.67;;;3.47;;
35048;SDS011;21236;48.740;-3.446;2022-10-29T06:39:44;11.27;;;3.92;;
35048;SDS011;21236;48.740;-3.446;2022-10-29T06:42:10;18.30;;;3.92;;
35048;SDS011;21236;48.740;-3.446;2022-10-29T06:44:36;17.98;;;4.50;;
35048;SDS011;21236;48.740;-3.446;2022-10-29T06:47:03;12.27;;;3.90;;
35048;SDS011;21236;48.740;-3.446;2022-10-29T06:49:29;18.55;;;4.40;;
35048;SDS011;21236;48.740;-3.446;2022-10-29T06:51:55;20.17;;;4.45;;
35048;SDS011;21236;48.740;-3.446;2022-10-29T06:54:22;13.35;;;3.90;;
35048;SDS011;21236;48.740;-3.446;2022-10-29T06:56:48;24.25;;;4.50;;
35048;SDS011;21236;48.740;-3.446;2022-10-29T06:59:14;13.65;;;3.40;;
35048;SDS011;21236;48.740;-3.446;2022-10-29T07:01:40;19.50;;;4.85;;
35048;SDS011;21236;48.740;-3.446;2022-10-29T07:04:06;22.23;;;4.13;;
35048;SDS011;21236;48.740;-3.446;2022-10-29T07:06:32;16.60;;;4.13;;
35048;SDS011;21236;48.740;-3.446;2022-10-29T07:08:58;15.90;;;3.95;;
35048;SDS011;21236;48.740;-3.446;2022-10-29T07:11:24;12.43;;;3.20;;
35048;SDS011;21236;48.740;-3.446;2022-10-29T07:13:51;18.17;;;4.38;;
35048;SDS011;21236;48.740;-3.446;2022-10-29T07:16:17;20.02;;;4.60;;
35048;SDS011;21236;48.740;-3.446;2022-10-29T07:18:43;19.23;;;4.90;;
35048;SDS011;21236;48.740;-3.446;2022-10-29T07:21:09;14.55;;;3.83;;
35048;SDS011;21236;48.740;-3.446;2022-10-29T07:23:35;14.65;;;3.88;;
35048;SDS011;21236;48.740;-3.446;2022-10-29T07:26:01;15.32;;;4.13;;
35048;SDS011;21236;48.740;-3.446;2022-10-29T07:28:27;23.00;;;3.63;;
35048;SDS011;21236;48.740;-3.446;2022-10-29T07:30:59;18.85;;;3.80;;
35048;SDS011;21236;48.740;-3.446;2022-10-29T07:33:28;20.93;;;4.17;;
35048;SDS011;21236;48.740;-3.446;2022-10-29T07:35:56;15.52;;;5.03;;
35048;SDS011;21236;48.740;-3.446;2022-10-29T07:38:22;20.95;;;4.15;;
35048;SDS011;21236;48.740;-3.446;2022-10-29T07:40:49;18.63;;;3.88;;
35048;SDS011;21236;48.740;-3.446;2022-10-29T07:43:16;18.02;;;3.92;;
35048;SDS011;21236;48.740;-3.446;2022-10-29T07:45:45;22.63;;;4.85;;
35048;SDS011;21236;48.740;-3.446;2022-10-29T07:48:13;18.00;;;4.22;;
35048;SDS011;21236;48.740;-3.446;2022-10-29T07:50:40;20.95;;;4.15;;
35048;SDS011;21236;48.740;-3.446;2022-10-29T07:53:06;19.38;;;3.92;;
35048;SDS011;21236;48.740;-3.446;2022-10-29T07:55:32;22.23;;;4.38;;
35048;SDS011;21236;48.740;-3.446;2022-10-29T07:58:00;18.38;;;4.30;;
35048;SDS011;21236;48.740;-3.446;2022-10-29T08:00:27;18.33;;;4.38;;
35048;SDS011;21236;48.740;-3.446;2022-10-29T08:02:53;28.25;;;5.07;;
35048;SDS011;21236;48.740;-3.446;2022-10-29T08:05:20;16.67;;;5.15;;
35048;SDS011;21236;48.740;-3.446;2022-10-29T08:07:46;17.13;;;5.20;;
35048;SDS011;21236;48.740;-3.446;2022-10-29T08:10:12;21.70;;;5.78;;
35048;SDS011;21236;48.740;-3.446;2022-10-29T08:12:38;17.35;;;4.57;;
35048;SDS011;21236;48.740;-3.446;2022-10-29T08:15:04;21.67;;;4.75;;
35048;SDS011;21236;48.740;-3.446;2022-10-29T08:17:31;16.98;;;4.93;;
35048;SDS011;21236;48.740;-3.446;2022-10-29T08:19:57;18.80;;;5.00;;
35048;SDS011;21236;48.740;-3.446;2022-10-29T08:22:23;20.30;;;5.50;;
35048;SDS011;21236;48.740;-3.446;2022-10-29T08:24:49;18.42;;;4.85;;
35048;SDS011;21236;48.740;-3.446;2022-10-29T08:27:15;21.13;;;4.57;;
35048;SDS011;21236;48.740;-3.446;2022-10-29T08:29:41;26.92;;;6.20;;
35048;SDS011;21236;48.740;-3.446;2022-10-29T08:32:07;19.25;;;4.95;;
35048;SDS011;21236;48.740;-3.446;2022-10-29T08:34:33;24.33;;;4.53;;
35048;SDS011;21236;48.740;-3.446;2022-10-29T08:37:00;35.80;;;5.82;;
35048;SDS011;21236;48.740;-3.446;2022-10-29T08:39:26;25.90;;;5.65;;
35048;SDS011;21236;48.740;-3.446;2022-10-29T08:42:13;25.80;;;6.00;;
35048;SDS011;21236;48.740;-3.446;2022-10-29T08:52:24;16.45;;;5.10;;
35048;SDS011;21236;48.740;-3.446;2022-10-29T08:57:18;14.80;;;5.43;;
35048;SDS011;21236;48.740;-3.446;2022-10-29T09:02:18;20.53;;;5.93;;
35048;SDS011;21236;48.740;-3.446;2022-10-29T09:04:44;21.58;;;5.50;;
35048;SDS011;21236;48.740;-3.446;2022-10-29T09:10:08;22.80;;;5.18;;
35048;SDS011;21236;48.740;-3.446;2022-10-29T09:12:42;23.55;;;5.50;;
35048;SDS011;21236;48.740;-3.446;2022-10-29T09:20:29;22.60;;;5.57;;
35048;SDS011;21236;48.740;-3.446;2022-10-29T09:25:51;24.88;;;5.57;;
35048;SDS011;21236;48.740;-3.446;2022-10-29T09:28:28;18.90;;;5.53;;
35048;SDS011;21236;48.740;-3.446;2022-10-29T09:33:25;25.52;;;6.50;;
35048;SDS011;21236;48.740;-3.446;2022-10-29T09:35:52;20.13;;;5.93;;
35048;SDS011;21236;48.740;-3.446;2022-10-29T09:38:23;22.70;;;6.38;;
35048;SDS011;21236;48.740;-3.446;2022-10-29T09:40:50;20.55;;;5.82;;
35048;SDS011;21236;48.740;-3.446;2022-10-29T09:50:51;22.27;;;5.30;;
35048;SDS011;21236;48.740;-3.446;2022-10-29T09:53:18;21.00;;;5.93;;
35048;SDS011;21236;48.740;-3.446;2022-10-29T09:55:45;21.10;;;6.18;;
35048;SDS011;21236;48.740;-3.446;2022-10-29T10:00:43;20.75;;;5.38;;
35048;SDS011;21236;48.740;-3.446;2022-10-29T10:03:12;16.38;;;5.70;;
35048;SDS011;21236;48.740;-3.446;2022-10-29T10:08:25;21.42;;;6.85;;
35048;SDS011;21236;48.740;-3.446;2022-10-29T10:10:52;19.48;;;5.38;;
35048;SDS011;21236;48.740;-3.446;2022-10-29T10:13:21;16.77;;;5.55;;
35048;SDS011;21236;48.740;-3.446;2022-10-29T10:15:53;16.98;;;4.60;;
35048;SDS011;21236;48.740;-3.446;2022-10-29T10:18:21;13.50;;;4.05;;
35048;SDS011;21236;48.740;-3.446;2022-10-29T10:20:58;20.45;;;3.92;;
35048;SDS011;21236;48.740;-3.446;2022-10-29T10:23:26;16.70;;;4.60;;
35048;SDS011;21236;48.740;-3.446;2022-10-29T10:25:56;17.90;;;3.85;;
35048;SDS011;21236;48.740;-3.446;2022-10-29T10:28:28;17.27;;;5.00;;
35048;SDS011;21236;48.740;-3.446;2022-10-29T10:33:34;12.68;;;3.70;;
35048;SDS011;21236;48.740;-3.446;2022-10-29T10:36:04;12.30;;;4.63;;
35048;SDS011;21236;48.740;-3.446;2022-10-29T10:38:44;14.60;;;3.90;;
35048;SDS011;21236;48.740;-3.446;2022-10-29T10:41:11;16.10;;;3.42;;
35048;SDS011;21236;48.740;-3.446;2022-10-29T10:43:40;15.27;;;4.18;;
35048;SDS011;21236;48.740;-3.446;2022-10-29T10:46:11;25.40;;;4.72;;
35048;SDS011;21236;48.740;-3.446;2022-10-29T10:48:39;15.15;;;4.00;;
35048;SDS011;21236;48.740;-3.446;2022-10-29T10:51:08;19.63;;;3.70;;
35048;SDS011;21236;48.740;-3.446;2022-10-29T10:53:35;11.43;;;3.50;;
35048;SDS011;21236;48.740;-3.446;2022-10-29T10:56:04;23.13;;;4.32;;
35048;SDS011;21236;48.740;-3.446;2022-10-29T10:58:35;20.98;;;4.47;;
35048;SDS011;21236;48.740;-3.446;2022-10-29T11:01:05;24.05;;;5.95;;
35048;SDS011;21236;48.740;-3.446;2022-10-29T11:03:38;15.38;;;3.80;;
35048;SDS011;21236;48.740;-3.446;2022-10-29T11:06:07;21.73;;;4.65;;
35048;SDS011;21236;48.740;-3.446;2022-10-29T11:11:21;18.63;;;4.05;;
35048;SDS011;21236;48.740;-3.446;2022-10-29T11:13:51;19.70;;;5.20;;
35048;SDS011;21236;48.740;-3.446;2022-10-29T11:18:47;19.25;;;5.70;;
35048;SDS011;21236;48.740;-3.446;2022-10-29T11:21:32;17.60;;;5.70;;
35048;SDS011;21236;48.740;-3.446;2022-10-29T11:34:02;29.77;;;5.28;;
35048;SDS011;21236;48.740;-3.446;2022-10-29T11:36:30;23.27;;;4.78;;
35048;SDS011;21236;48.740;-3.446;2022-10-29T11:39:44;25.67;;;6.07;;
35048;SDS011;21236;48.740;-3.446;2022-10-29T11:41:58;25.80;;;6.68;;
35048;SDS011;21236;48.740;-3.446;2022-10-29T11:44:25;19.40;;;6.20;;
35048;SDS011;21236;48.740;-3.446;2022-10-29T11:52:12;23.92;;;4.50;;
35048;SDS011;21236;48.740;-3.446;2022-10-29T12:00:12;20.15;;;4.35;;
35048;SDS011;21236;48.740;-3.446;2022-10-29T12:07:53;13.00;;;3.95;;
35048;SDS011;21236;48.740;-3.446;2022-10-29T12:13:01;15.48;;;3.83;;
35048;SDS011;21236;48.740;-3.446;2022-10-29T12:15:40;12.02;;;2.92;;
35048;SDS011;21236;48.740;-3.446;2022-10-29T12:26:05;17.85;;;4.28;;
35048;SDS011;21236;48.740;-3.446;2022-10-29T12:28:48;17.45;;;4.53;;
35048;SDS011;21236;48.740;-3.446;2022-10-29T12:39:03;13.70;;;2.58;;
35048;SDS011;21236;48.740;-3.446;2022-10-29T12:41:31;9.32;;;2.47;;
35048;SDS011;21236;48.740;-3.446;2022-10-29T12:46:53;13.95;;;2.42;;
35048;SDS011;21236;48.740;-3.446;2022-10-29T12:49:31;9.00;;;2.72;;
35048;SDS011;21236;48.740;-3.446;2022-10-29T12:52:04;7.47;;;1.77;;
35048;SDS011;21236;48.740;-3.446;2022-10-29T12:54:34;10.40;;;2.10;;
35048;SDS011;21236;48.740;-3.446;2022-10-29T12:57:02;7.97;;;1.67;;
35048;SDS011;21236;48.740;-3.446;2022-10-29T12:59:30;39.53;;;9.15;;
35048;SDS011;21236;48.740;-3.446;2022-10-29T13:04:38;7.13;;;3.00;;
35048;SDS011;21236;48.740;-3.446;2022-10-29T13:07:24;9.20;;;1.65;;
35048;SDS011;21236;48.740;-3.446;2022-10-29T13:10:04;8.82;;;1.90;;
35048;SDS011;21236;48.740;-3.446;2022-10-29T13:15:39;6.82;;;1.70;;
35048;SDS011;21236;48.740;-3.446;2022-10-29T13:20:40;8.27;;;1.63;;
35048;SDS011;21236;48.740;-3.446;2022-10-29T13:30:41;8.45;;;1.60;;
35048;SDS011;21236;48.740;-3.446;2022-10-29T13:35:56;7.38;;;2.22;;
35048;SDS011;21236;48.740;-3.446;2022-10-29T13:41:08;6.25;;;1.20;;
35048;SDS011;21236;48.740;-3.446;2022-10-29T13:43:36;6.65;;;1.77;;
35048;SDS011;21236;48.740;-3.446;2022-10-29T13:46:25;6.20;;;1.98;;
35048;SDS011;21236;48.740;-3.446;2022-10-29T13:48:48;6.55;;;1.67;;
35048;SDS011;21236;48.740;-3.446;2022-10-29T13:51:18;6.95;;;1.70;;
35048;SDS011;21236;48.740;-3.446;2022-10-29T13:53:51;6.15;;;1.45;;
35048;SDS011;21236;48.740;-3.446;2022-10-29T13:56:21;6.25;;;1.63;;
35048;SDS011;21236;48.740;-3.446;2022-10-29T13:58:50;10.23;;;1.70;;
35048;SDS011;21236;48.740;-3.446;2022-10-29T14:01:17;4.72;;;1.27;;
35048;SDS011;21236;48.740;-3.446;2022-10-29T14:06:22;6.18;;;1.60;;
35048;SDS011;21236;48.740;-3.446;2022-10-29T14:09:25;7.13;;;2.17;;
35048;SDS011;21236;48.740;-3.446;2022-10-29T14:11:43;3.72;;;1.35;;
35048;SDS011;21236;48.740;-3.446;2022-10-29T14:14:18;5.95;;;1.48;;
35048;SDS011;21236;48.740;-3.446;2022-10-29T14:16:47;18.33;;;1.65;;
35048;SDS011;21236;48.740;-3.446;2022-10-29T14:19:13;6.90;;;1.58;;
35048;SDS011;21236;48.740;-3.446;2022-10-29T14:21:43;8.82;;;1.98;;
35048;SDS011;21236;48.740;-3.446;2022-10-29T14:24:10;4.18;;;1.77;;
35048;SDS011;21236;48.740;-3.446;2022-10-29T14:26:40;10.57;;;2.72;;
35048;SDS011;21236;48.740;-3.446;2022-10-29T14:29:11;8.85;;;1.90;;
35048;SDS011;21236;48.740;-3.446;2022-10-29T14:31:37;10.27;;;1.63;;
35048;SDS011;21236;48.740;-3.446;2022-10-29T14:34:03;6.47;;;1.73;;
35048;SDS011;21236;48.740;-3.446;2022-10-29T14:36:35;8.77;;;2.05;;
35048;SDS011;21236;48.740;-3.446;2022-10-29T14:41:37;8.77;;;1.75;;
35048;SDS011;21236;48.740;-3.446;2022-10-29T14:46:36;4.88;;;1.65;;
35048;SDS011;21236;48.740;-3.446;2022-10-29T14:49:04;7.75;;;1.55;;
35048;SDS011;21236;48.740;-3.446;2022-10-29T14:51:38;9.55;;;1.77;;
35048;SDS011;21236;48.740;-3.446;2022-10-29T14:54:05;8.32;;;1.65;;
35048;SDS011;21236;48.740;-3.446;2022-10-29T14:56:33;7.85;;;1.85;;
35048;SDS011;21236;48.740;-3.446;2022-10-29T14:59:00;6.82;;;1.70;;
35048;SDS011;21236;48.740;-3.446;2022-10-29T15:01:27;12.88;;;1.80;;
35048;SDS011;21236;48.740;-3.446;2022-10-29T15:03:57;9.57;;;1.55;;
35048;SDS011;21236;48.740;-3.446;2022-10-29T15:06:26;10.02;;;1.63;;
35048;SDS011;21236;48.740;-3.446;2022-10-29T15:11:33;5.70;;;1.42;;
35048;SDS011;21236;48.740;-3.446;2022-10-29T15:14:00;10.15;;;1.45;;
35048;SDS011;21236;48.740;-3.446;2022-10-29T15:16:27;6.22;;;1.33;;
35048;SDS011;21236;48.740;-3.446;2022-10-29T15:18:54;7.32;;;2.05;;
35048;SDS011;21236;48.740;-3.446;2022-10-29T15:21:24;7.82;;;1.55;;
35048;SDS011;21236;48.740;-3.446;2022-10-29T15:23:53;13.88;;;2.38;;
35048;SDS011;21236;48.740;-3.446;2022-10-29T15:26:20;6.95;;;1.63;;
35048;SDS011;21236;48.740;-3.446;2022-10-29T15:28:47;6.95;;;1.77;;
35048;SDS011;21236;48.740;-3.446;2022-10-29T15:33:53;7.47;;;2.03;;
35048;SDS011;21236;48.740;-3.446;2022-10-29T15:36:19;13.45;;;1.83;;
35048;SDS011;21236;48.740;-3.446;2022-10-29T15:43:48;11.02;;;2.20;;
35048;SDS011;21236;48.740;-3.446;2022-10-29T15:46:22;10.45;;;2.13;;
35048;SDS011;21236;48.740;-3.446;2022-10-29T15:48:48;6.85;;;1.50;;
35048;SDS011;21236;48.740;-3.446;2022-10-29T15:51:15;10.40;;;1.83;;
35048;SDS011;21236;48.740;-3.446;2022-10-29T15:53:41;15.45;;;1.83;;
35048;SDS011;21236;48.740;-3.446;2022-10-29T15:56:10;11.27;;;1.98;;
35048;SDS011;21236;48.740;-3.446;2022-10-29T15:58:37;9.23;;;1.75;;
35048;SDS011;21236;48.740;-3.446;2022-10-29T16:01:03;7.10;;;1.50;;
35048;SDS011;21236;48.740;-3.446;2022-10-29T16:03:29;9.93;;;1.90;;
35048;SDS011;21236;48.740;-3.446;2022-10-29T16:05:56;12.80;;;1.77;;
35048;SDS011;21236;48.740;-3.446;2022-10-29T16:08:38;11.93;;;2.15;;
35048;SDS011;21236;48.740;-3.446;2022-10-29T16:11:06;11.20;;;2.13;;
35048;SDS011;21236;48.740;-3.446;2022-10-29T16:13:32;12.65;;;2.85;;
35048;SDS011;21236;48.740;-3.446;2022-10-29T16:15:59;10.20;;;2.15;;
35048;SDS011;21236;48.740;-3.446;2022-10-29T16:18:25;12.93;;;3.50;;
35048;SDS011;21236;48.740;-3.446;2022-10-29T16:20:54;13.32;;;3.25;;
35048;SDS011;21236;48.740;-3.446;2022-10-29T16:23:20;16.52;;;2.10;;
35048;SDS011;21236;48.740;-3.446;2022-10-29T16:25:47;15.13;;;2.70;;
35048;SDS011;21236;48.740;-3.446;2022-10-29T16:28:13;16.38;;;2.58;;
35048;SDS011;21236;48.740;-3.446;2022-10-29T16:30:39;10.40;;;2.38;;
35048;SDS011;21236;48.740;-3.446;2022-10-29T16:33:05;19.92;;;2.88;;
35048;SDS011;21236;48.740;-3.446;2022-10-29T16:35:31;15.55;;;3.03;;
35048;SDS011;21236;48.740;-3.446;2022-10-29T16:37:58;14.32;;;3.42;;
35048;SDS011;21236;48.740;-3.446;2022-10-29T16:40:24;12.10;;;1.70;;
35048;SDS011;21236;48.740;-3.446;2022-10-29T16:42:51;10.60;;;2.55;;
35048;SDS011;21236;48.740;-3.446;2022-10-29T16:45:21;14.90;;;2.22;;
35048;SDS011;21236;48.740;-3.446;2022-10-29T16:47:48;14.02;;;3.22;;
35048;SDS011;21236;48.740;-3.446;2022-10-29T16:50:20;12.25;;;2.10;;
35048;SDS011;21236;48.740;-3.446;2022-10-29T16:52:46;13.23;;;2.95;;
35048;SDS011;21236;48.740;-3.446;2022-10-29T16:55:12;14.48;;;3.05;;
35048;SDS011;21236;48.740;-3.446;2022-10-29T16:57:38;18.00;;;3.30;;
35048;SDS011;21236;48.740;-3.446;2022-10-29T17:00:05;16.23;;;2.47;;
35048;SDS011;21236;48.740;-3.446;2022-10-29T17:02:32;23.60;;;2.70;;
35048;SDS011;21236;48.740;-3.446;2022-10-29T17:04:58;12.40;;;1.80;;
35048;SDS011;21236;48.740;-3.446;2022-10-29T17:07:24;15.00;;;2.40;;
35048;SDS011;21236;48.740;-3.446;2022-10-29T17:09:50;19.98;;;2.63;;